| Date | Time | Temp. (oF) | Dew Point (oF) | Rel. Hum. (%) | Press. (in.) | Wind Dir. (deg.) | Wind Speed (mph) | Hourly Rainfall (i n.) |
|
|---|---|---|---|---|---|---|---|---|---|
| 1 | miss | miss | miss | miss | miss | miss | miss | miss | |
| 2 | 08/31 | 17:29 | 76 | 52 | 44 | 30.39 | 90 | 2 | 0.00 |
| 3 | miss | miss | miss | miss | miss | miss | miss | miss | |
| 4 | 08/31 | 17:29 | 76 | 52 | 44 | 30.39 | 90 | 2 | 0.00 |
| 5 | miss | miss | miss | miss | miss | miss | miss | miss | |
| 6 | 08/31 | 17:29 | 76 | 52 | 44 | 30.39 | 90 | 2 | 0.00 |
| 7 | miss | miss | miss | miss | miss | miss | miss | miss | |
| 8 | 08/31 | 17:00 | 76 | 51 | 43 | 30.40 | 40 | 0 | 0.00 |
| 9 | 08/31 | 16:00 | 76 | 50 | 41 | 30.40 | 50 | 4 | 0.00 |
| 10 | 08/31 | 15:00 | 77 | 51 | 42 | 30.42 | 10 | 7 | 0.00 |
| 11 | 08/31 | 14:00 | 76 | 51 | 43 | 30.43 | 270 | 6 | 0.00 |
| 12 | 08/31 | 13:00 | 75 | 52 | 45 | 30.42 | 60 | 2 | 0.00 |
| 13 | 08/31 | 12:00 | 72 | 50 | 47 | 30.42 | 50 | 4 | 0.00 |
| 14 | 08/31 | 11:00 | 71 | 52 | 52 | 30.43 | 50 | 10 | 0.00 |
| 15 | 08/31 | 10:00 | 67 | 51 | 58 | 30.43 | 50 | 2 | 0.00 |
| 16 | 08/31 | 09:00 | 65 | 52 | 63 | 30.42 | 50 | 1 | 0.00 |
| 17 | 08/31 | 08:00 | 63 | 50 | 63 | 30.41 | 10 | 4 | 0.00 |
| 18 | 08/31 | 07:00 | 61 | 51 | 72 | 30.39 | 10 | 0 | 0.00 |
| 19 | 08/31 | 06:00 | 63 | 51 | 65 | 30.38 | 10 | 0 | 0.00 |
| 20 | 08/31 | 05:00 | 63 | 51 | 65 | 30.37 | 350 | 0 | 0.00 |
| 21 | 08/31 | 04:00 | 62 | 51 | 68 | 30.37 | 70 | 1 | 0.00 |
| 22 | 08/31 | 03:00 | 62 | 52 | 72 | 30.37 | 230 | 0 | 0.00 |
| 23 | 08/31 | 02:00 | 63 | 52 | 69 | 30.38 | 230 | 0 | 0.00 |
| 24 | 08/31 | 01:00 | 67 | 52 | 59 | 30.38 | 230 | 0 | 0.00 |